Time;durP1;ratioP1;P1;durP2;ratioP2;P2;SDS_P1;SDS_P2;PMS_P1;PMS_P2;Temp;Humidity;BMP_temperature;BMP_pressure;BME280_temperature;BME280_humidity;BME280_pressure;Samples;Min_cycle;Max_cycle;Signal;HPM_P1;HPM_P2
2024/01/11 00:00:17;;;;;;;22.13;12.97;;;-2.30;99.90;;;;;;5057877;28;20215;-80
2024/01/11 00:02:42;;;;;;;22.67;13.10;;;-2.40;99.90;;;;;;5061732;28;20182;-77
2024/01/11 00:05:09;;;;;;;19.87;12.23;;;-2.50;99.90;;;;;;5053166;28;20222;-79
2024/01/11 00:07:34;;;;;;;22.70;13.20;;;-2.70;99.90;;;;;;5053597;28;20183;-76
2024/01/11 00:10:02;;;;;;;19.83;12.07;;;-2.50;99.90;;;;;;5065606;28;20203;-77
2024/01/11 00:12:28;;;;;;;21.60;12.77;;;-2.70;99.90;;;;;;5064437;28;20171;-78
2024/01/11 00:14:53;;;;;;;21.33;12.50;;;-2.70;99.90;;;;;;5054041;28;20183;-77
2024/01/11 00:17:19;;;;;;;21.87;11.73;;;-2.60;99.90;;;;;;5053242;28;20613;-78
2024/01/11 00:19:45;;;;;;;19.43;11.47;;;-2.80;99.90;;;;;;5051644;28;20212;-79
2024/01/11 00:22:11;;;;;;;19.67;11.37;;;-2.80;99.90;;;;;;5053709;28;20184;-78
2024/01/11 00:24:36;;;;;;;18.53;11.63;;;-2.60;99.90;;;;;;5053804;28;20222;-78
2024/01/11 00:27:02;;;;;;;18.80;11.30;;;-2.70;99.90;;;;;;5057916;28;20264;-78
2024/01/11 00:29:28;;;;;;;20.87;10.67;;;-2.80;99.90;;;;;;5061090;28;20211;-78
2024/01/11 00:31:54;;;;;;;20.50;11.03;;;-2.90;99.90;;;;;;5054242;28;20184;-78
2024/01/11 00:34:21;;;;;;;18.70;11.43;;;-2.80;99.90;;;;;;5052991;28;20205;-77
2024/01/11 00:36:47;;;;;;;21.37;11.37;;;-2.60;99.90;;;;;;5052888;28;20176;-79
2024/01/11 00:39:13;;;;;;;19.17;11.93;;;-2.80;99.90;;;;;;5053407;28;20621;-78
2024/01/11 00:41:39;;;;;;;21.83;13.00;;;-2.80;99.90;;;;;;5053326;28;20222;-78
2024/01/11 00:44:05;;;;;;;17.70;11.20;;;-2.80;99.90;;;;;;5053737;28;20176;-79
2024/01/11 00:46:31;;;;;;;20.50;11.77;;;-3.00;99.90;;;;;;5057452;28;20252;-79
2024/01/11 00:48:56;;;;;;;21.00;12.90;;;-2.80;99.90;;;;;;5055660;28;20178;-80
2024/01/11 00:51:22;;;;;;;20.47;12.57;;;-2.80;99.90;;;;;;5066280;28;20216;-79
2024/01/11 00:53:49;;;;;;;20.93;12.23;;;-2.80;99.90;;;;;;5060452;28;20172;-79
2024/01/11 00:56:19;;;;;;;20.93;12.30;;;-3.00;99.90;;;;;;5053472;28;20520;-81
2024/01/11 00:58:45;;;;;;;22.67;13.17;;;-2.80;99.90;;;;;;5053818;28;20639;-79
2024/01/11 01:01:13;;;;;;;24.53;13.67;;;-2.90;99.90;;;;;;5053344;28;20309;-80
2024/01/11 01:03:39;;;;;;;25.13;13.10;;;-2.90;99.90;;;;;;5053389;28;20203;-80
2024/01/11 01:06:05;;;;;;;20.87;12.70;;;-3.00;99.90;;;;;;5054391;28;20251;-80
2024/01/11 01:08:31;;;;;;;20.73;12.13;;;-2.60;99.90;;;;;;5052463;28;20191;-81
2024/01/11 01:10:57;;;;;;;23.40;12.60;;;-2.80;99.90;;;;;;5054152;28;20231;-79
2024/01/11 01:13:23;;;;;;;21.07;12.77;;;-2.80;99.90;;;;;;5053271;28;20232;-78
2024/01/11 01:15:48;;;;;;;24.03;12.33;;;-2.90;99.90;;;;;;5066017;28;20168;-77
2024/01/11 01:18:14;;;;;;;17.97;11.53;;;-2.90;99.90;;;;;;5057729;28;20533;-79
2024/01/11 01:20:40;;;;;;;20.03;11.13;;;-2.70;99.90;;;;;;5059848;28;20208;-77
2024/01/11 01:23:06;;;;;;;20.23;12.63;;;-2.80;99.90;;;;;;5074611;28;20172;-78
2024/01/11 01:25:34;;;;;;;23.67;12.20;;;-3.00;99.90;;;;;;5072019;28;20208;-79
2024/01/11 01:28:00;;;;;;;24.43;12.83;;;-3.00;99.90;;;;;;5057970;28;20631;-77
2024/01/11 01:30:27;;;;;;;23.80;13.97;;;-3.10;99.90;;;;;;5056625;28;20646;-77
2024/01/11 01:32:53;;;;;;;28.03;14.27;;;-2.90;99.90;;;;;;5057802;28;20170;-78
2024/01/11 01:35:19;;;;;;;23.77;13.50;;;-3.00;99.90;;;;;;5056713;28;20175;-80
2024/01/11 01:37:45;;;;;;;21.03;12.50;;;-3.10;99.90;;;;;;5056294;28;20182;-77
2024/01/11 01:40:11;;;;;;;20.20;12.73;;;-3.10;99.90;;;;;;5054648;28;20674;-77
2024/01/11 01:42:43;;;;;;;22.67;12.47;;;-3.10;99.90;;;;;;5059971;28;20225;-76
2024/01/11 01:45:09;;;;;;;22.73;12.30;;;-3.00;99.90;;;;;;5059979;28;20256;-77
2024/01/11 01:47:35;;;;;;;23.40;11.93;;;-3.10;99.90;;;;;;5056877;28;20210;-77
2024/01/11 01:50:00;;;;;;;17.87;11.87;;;-2.90;99.90;;;;;;5056265;28;20242;-79
2024/01/11 01:52:26;;;;;;;22.10;12.90;;;-2.90;99.90;;;;;;5056754;28;20172;-79
2024/01/11 01:54:53;;;;;;;18.67;12.13;;;-3.10;99.90;;;;;;5058980;28;20737;-79
2024/01/11 01:57:20;;;;;;;25.00;14.07;;;-3.10;99.90;;;;;;5067049;28;20179;-79
2024/01/11 01:59:49;;;;;;;23.10;12.87;;;-3.40;99.90;;;;;;5063610;28;20651;-80
2024/01/11 02:02:16;;;;;;;25.77;13.90;;;-3.10;99.90;;;;;;5056267;28;20271;-78
2024/01/11 02:04:42;;;;;;;25.83;15.07;;;-3.30;99.90;;;;;;5056193;28;20180;-79
2024/01/11 02:07:08;;;;;;;27.60;15.00;;;-3.30;99.90;;;;;;5057132;28;20257;-80
2024/01/11 02:09:35;;;;;;;25.37;15.13;;;-3.10;99.90;;;;;;5057616;28;20226;-82
2024/01/11 02:12:02;;;;;;;28.50;15.97;;;-3.10;99.90;;;;;;5057719;28;20162;-80
2024/01/11 02:14:28;;;;;;;27.53;15.53;;;-3.20;99.90;;;;;;5056098;28;20168;-77
2024/01/11 02:16:53;;;;;;;31.23;17.30;;;-3.30;99.90;;;;;;5055354;28;20176;-78
2024/01/11 02:19:20;;;;;;;34.00;16.83;;;-3.50;99.90;;;;;;5055714;28;20168;-78
2024/01/11 02:21:48;;;;;;;34.90;17.33;;;-3.20;99.90;;;;;;5057213;28;20191;-77
2024/01/11 02:24:14;;;;;;;28.30;16.53;;;-3.00;99.90;;;;;;5064319;28;20168;-80
2024/01/11 02:27:03;;;;;;;28.20;16.00;;;-3.30;99.90;;;;;;5063753;28;20273;-78
2024/01/11 02:29:30;;;;;;;25.50;15.83;;;-3.00;99.90;;;;;;5056892;28;20243;-78
2024/01/11 02:32:00;;;;;;;30.30;16.43;;;-3.30;99.90;;;;;;5071237;28;20203;-76
2024/01/11 02:34:29;;;;;;;30.73;16.90;;;-3.30;99.90;;;;;;5063308;28;20177;-76
2024/01/11 02:36:55;;;;;;;25.70;15.00;;;-3.00;99.90;;;;;;5057160;28;20226;-76
2024/01/11 02:39:24;;;;;;;30.03;17.90;;;-3.00;99.90;;;;;;5068103;28;20172;-79
2024/01/11 02:41:51;;;;;;;33.20;17.57;;;-3.10;99.90;;;;;;5071995;28;20183;-81
2024/01/11 02:44:17;;;;;;;31.37;15.63;;;-2.60;99.90;;;;;;5073308;28;20228;-76
2024/01/11 02:46:43;;;;;;;28.73;17.30;;;-2.90;99.90;;;;;;5071795;28;20183;-78
2024/01/11 02:49:08;;;;;;;30.33;16.90;;;-3.10;99.90;;;;;;5058967;28;20187;-78
2024/01/11 02:51:35;;;;;;;30.43;17.00;;;-3.00;99.90;;;;;;5057497;28;20176;-80
2024/01/11 02:54:01;;;;;;;33.57;17.37;;;-3.40;99.90;;;;;;5045314;28;20180;-79
2024/01/11 02:56:27;;;;;;;30.43;16.40;;;-3.40;99.90;;;;;;5037780;28;20176;-77
2024/01/11 02:58:53;;;;;;;27.07;16.00;;;-3.10;99.90;;;;;;5037077;28;20256;-79
2024/01/11 03:01:20;;;;;;;29.03;16.57;;;-3.50;99.90;;;;;;5036584;28;20222;-79
2024/01/11 03:03:46;;;;;;;27.17;15.57;;;-3.60;99.90;;;;;;5016506;28;20188;-78
2024/01/11 03:06:12;;;;;;;27.27;15.40;;;-3.60;99.90;;;;;;5038449;28;20235;-76
2024/01/11 03:08:37;;;;;;;28.53;15.77;;;-3.00;99.90;;;;;;5041013;28;20169;-78
2024/01/11 03:11:04;;;;;;;28.70;16.03;;;-3.30;99.90;;;;;;5036554;28;20224;-76
2024/01/11 03:13:29;;;;;;;28.03;15.10;;;-3.60;99.90;;;;;;5038293;28;20176;-76
2024/01/11 03:15:55;;;;;;;31.53;16.13;;;-3.40;99.90;;;;;;5041007;28;20172;-76
2024/01/11 03:18:21;;;;;;;26.23;14.13;;;-3.50;99.90;;;;;;5047575;28;20612;-76
2024/01/11 03:20:46;;;;;;;30.97;15.10;;;-3.40;99.90;;;;;;5037865;28;20297;-78
2024/01/11 03:23:12;;;;;;;30.77;15.30;;;-3.20;99.90;;;;;;5034845;28;20189;-75
2024/01/11 03:25:38;;;;;;;27.97;15.33;;;-3.20;99.90;;;;;;5035644;28;20212;-77
2024/01/11 03:28:04;;;;;;;28.90;15.33;;;-3.40;99.90;;;;;;5037680;28;20172;-80
2024/01/11 03:30:30;;;;;;;27.57;15.27;;;-3.40;99.90;;;;;;5036567;28;20644;-79
2024/01/11 03:32:56;;;;;;;28.10;15.47;;;-3.50;99.90;;;;;;5035758;28;20260;-82
2024/01/11 03:35:22;;;;;;;25.60;14.40;;;-3.50;99.90;;;;;;5033675;28;20275;-79
2024/01/11 03:37:47;;;;;;;29.87;14.77;;;-3.60;99.90;;;;;;5032991;28;20176;-77
2024/01/11 03:40:14;;;;;;;26.80;16.20;;;-3.40;99.90;;;;;;5034370;28;20212;-77
2024/01/11 03:42:41;;;;;;;25.77;15.07;;;-3.50;99.90;;;;;;5035996;28;20172;-80
2024/01/11 03:45:07;;;;;;;24.53;14.97;;;-3.30;99.90;;;;;;5042264;28;20198;-78
2024/01/11 03:47:33;;;;;;;25.10;14.47;;;-3.60;99.90;;;;;;5052153;28;20183;-78
2024/01/11 03:49:58;;;;;;;28.03;15.63;;;-3.40;99.90;;;;;;5044866;28;20177;-78
2024/01/11 03:52:24;;;;;;;31.40;15.40;;;-3.50;99.90;;;;;;5044572;28;20204;-79
2024/01/11 03:54:50;;;;;;;30.00;15.57;;;-3.40;99.90;;;;;;5036937;28;20185;-78
2024/01/11 03:57:17;;;;;;;28.93;15.97;;;-3.40;99.90;;;;;;5034603;28;20180;-79
2024/01/11 03:59:43;;;;;;;26.30;14.90;;;-3.50;99.90;;;;;;5038738;28;20211;-77
2024/01/11 04:02:08;;;;;;;30.83;16.00;;;-3.50;99.90;;;;;;5048445;28;20176;-79
2024/01/11 04:04:34;;;;;;;27.27;15.60;;;-3.50;99.90;;;;;;5034150;28;20170;-79
2024/01/11 04:07:00;;;;;;;27.83;15.57;;;-3.70;99.90;;;;;;5034332;28;20176;-78
2024/01/11 04:09:26;;;;;;;26.40;15.37;;;-3.60;99.90;;;;;;5032835;28;20177;-80
2024/01/11 04:11:51;;;;;;;28.90;15.63;;;-3.70;99.90;;;;;;5033973;28;20686;-78
2024/01/11 04:14:17;;;;;;;28.60;15.27;;;-3.40;99.90;;;;;;5033721;28;20183;-76
2024/01/11 04:16:43;;;;;;;24.17;14.17;;;-3.60;99.90;;;;;;5033364;28;20180;-78
2024/01/11 04:19:09;;;;;;;28.97;16.07;;;-3.80;99.90;;;;;;5032485;28;20168;-79
2024/01/11 04:21:37;;;;;;;25.30;15.67;;;-3.70;99.90;;;;;;5032263;28;20695;-80
2024/01/11 04:24:03;;;;;;;31.53;15.20;;;-3.50;99.90;;;;;;5033639;28;20662;-80
2024/01/11 04:26:28;;;;;;;25.67;14.63;;;-4.10;99.90;;;;;;5034844;28;20176;-80
2024/01/11 04:28:54;;;;;;;27.97;15.97;;;-4.00;99.90;;;;;;5033355;28;20173;-76
2024/01/11 04:31:20;;;;;;;25.47;15.30;;;-4.10;99.90;;;;;;5035178;28;20172;-78
2024/01/11 04:33:46;;;;;;;24.47;14.90;;;-4.00;99.90;;;;;;5032320;28;20647;-80
2024/01/11 04:36:13;;;;;;;25.50;14.70;;;-4.00;99.90;;;;;;5032891;28;20314;-78
2024/01/11 04:38:39;;;;;;;24.13;15.47;;;-3.90;99.90;;;;;;5032788;28;20199;-77
2024/01/11 04:41:23;;;;;;;25.03;14.80;;;-3.90;99.90;;;;;;5033719;28;20265;-78
2024/01/11 04:43:48;;;;;;;24.63;13.97;;;-3.80;99.90;;;;;;5034185;28;20169;-79
2024/01/11 04:46:18;;;;;;;23.93;15.37;;;-3.90;99.90;;;;;;5033667;28;20183;-80
2024/01/11 04:48:44;;;;;;;24.90;14.80;;;-4.00;99.90;;;;;;5033351;28;20160;-79
2024/01/11 04:51:10;;;;;;;24.10;14.37;;;-3.80;99.90;;;;;;5033842;28;20515;-80
2024/01/11 04:53:40;;;;;;;24.07;14.23;;;-3.90;99.90;;;;;;5037874;28;20165;-80
2024/01/11 04:56:10;;;;;;;25.77;14.73;;;-3.90;99.90;;;;;;5038796;28;20180;-79
2024/01/11 04:58:38;;;;;;;22.53;13.30;;;-3.90;99.90;;;;;;5036855;28;20200;-77
2024/01/11 05:01:05;;;;;;;24.63;13.90;;;-3.90;99.90;;;;;;5036867;28;20266;-78
2024/01/11 05:03:32;;;;;;;28.33;13.93;;;-3.90;99.90;;;;;;5036819;28;20255;-77
2024/01/11 05:06:01;;;;;;;23.30;13.50;;;-4.10;99.90;;;;;;5036911;28;20176;-79
2024/01/11 05:08:27;;;;;;;25.43;14.37;;;-4.10;99.90;;;;;;5049331;28;20164;-80
2024/01/11 05:10:53;;;;;;;23.03;12.70;;;-4.00;99.90;;;;;;5041464;28;20226;-77
2024/01/11 05:13:19;;;;;;;27.67;14.47;;;-4.10;99.90;;;;;;5043440;28;20596;-78
2024/01/11 05:15:45;;;;;;;23.67;13.67;;;-4.00;99.90;;;;;;5051806;28;20184;-78
2024/01/11 05:18:12;;;;;;;23.33;14.07;;;-4.00;99.90;;;;;;5039069;28;20187;-80
2024/01/11 05:20:38;;;;;;;21.27;12.73;;;-4.00;99.90;;;;;;5036746;28;20203;-78
2024/01/11 05:23:04;;;;;;;21.53;14.03;;;-3.90;99.90;;;;;;5036699;28;20227;-80
2024/01/11 05:25:33;;;;;;;22.13;12.87;;;-3.90;99.90;;;;;;5036332;28;20632;-78
2024/01/11 05:28:03;;;;;;;23.87;13.70;;;-4.00;99.90;;;;;;5036834;28;20172;-76
2024/01/11 05:30:30;;;;;;;23.80;14.23;;;-4.00;99.90;;;;;;5038032;28;20188;-77
2024/01/11 05:32:56;;;;;;;27.63;15.03;;;-3.90;99.90;;;;;;5038140;28;20196;-79
2024/01/11 05:35:23;;;;;;;23.03;13.87;;;-4.00;99.90;;;;;;5039793;28;20225;-76
2024/01/11 05:37:50;;;;;;;22.17;14.20;;;-4.00;99.90;;;;;;5045384;28;20188;-76
2024/01/11 05:40:16;;;;;;;24.87;13.77;;;-4.00;99.90;;;;;;5047746;28;20208;-79
2024/01/11 05:42:42;;;;;;;24.33;14.20;;;-4.00;99.90;;;;;;5036606;28;20369;-81
2024/01/11 05:45:08;;;;;;;25.87;13.83;;;-4.10;99.90;;;;;;5036156;28;20636;-76
2024/01/11 05:47:33;;;;;;;22.13;12.73;;;-4.00;99.90;;;;;;5036016;28;20168;-80
2024/01/11 05:49:59;;;;;;;23.63;13.00;;;-4.10;99.90;;;;;;5036200;28;20666;-78
2024/01/11 05:52:25;;;;;;;19.17;12.10;;;-4.20;99.90;;;;;;5037914;28;20636;-78
2024/01/11 05:54:51;;;;;;;23.20;13.00;;;-4.20;99.90;;;;;;5039951;28;20176;-78
2024/01/11 05:57:16;;;;;;;21.10;11.53;;;-4.10;99.90;;;;;;5037410;28;20199;-75
2024/01/11 05:59:46;;;;;;;20.47;11.80;;;-4.10;99.90;;;;;;5034343;28;20200;-76
2024/01/11 06:02:13;;;;;;;24.93;12.17;;;-4.20;99.90;;;;;;5035208;28;20313;-78
2024/01/11 06:04:39;;;;;;;22.67;12.80;;;-4.20;99.90;;;;;;5036269;28;20259;-80
2024/01/11 06:07:04;;;;;;;22.30;12.67;;;-4.10;99.90;;;;;;5038718;28;20222;-78
2024/01/11 06:09:30;;;;;;;18.07;11.33;;;-4.30;99.90;;;;;;5043404;28;20200;-80
2024/01/11 06:11:56;;;;;;;16.63;11.73;;;-4.40;99.90;;;;;;5049686;28;20185;-79
2024/01/11 06:14:22;;;;;;;18.73;11.20;;;-4.60;99.90;;;;;;5036479;28;20180;-80
2024/01/11 06:16:47;;;;;;;21.60;11.63;;;-4.70;99.90;;;;;;5036350;28;20181;-78
2024/01/11 06:19:15;;;;;;;19.00;11.53;;;-4.70;99.90;;;;;;5038030;28;20655;-78
2024/01/11 06:21:41;;;;;;;17.63;11.07;;;-4.70;99.90;;;;;;5036980;28;20250;-78
2024/01/11 06:24:06;;;;;;;18.23;10.93;;;-4.60;99.90;;;;;;5051183;28;20179;-79
2024/01/11 06:26:32;;;;;;;19.20;11.60;;;-4.60;99.90;;;;;;5053938;28;20176;-77
2024/01/11 06:28:58;;;;;;;20.27;11.30;;;-4.10;99.90;;;;;;5037659;28;20180;-79
2024/01/11 06:31:24;;;;;;;19.30;12.33;;;-4.40;99.90;;;;;;5038624;28;20258;-78
2024/01/11 06:33:50;;;;;;;19.57;11.83;;;-4.50;99.90;;;;;;5039244;28;20727;-76
2024/01/11 06:36:15;;;;;;;22.73;12.90;;;-4.40;99.90;;;;;;5038918;28;20180;-78
2024/01/11 06:38:41;;;;;;;23.60;11.73;;;-4.40;99.90;;;;;;5036332;28;20669;-79
2024/01/11 06:41:07;;;;;;;21.33;11.83;;;-4.30;99.90;;;;;;5035628;28;20208;-78
2024/01/11 06:43:33;;;;;;;21.90;11.90;;;-3.90;99.90;;;;;;5035630;28;20279;-78
2024/01/11 06:46:05;;;;;;;21.10;11.70;;;-4.00;99.90;;;;;;5035113;28;20255;-79
2024/01/11 06:48:32;;;;;;;23.80;12.77;;;-4.00;99.90;;;;;;5036930;28;20160;-78
2024/01/11 06:50:58;;;;;;;20.30;13.23;;;-4.00;99.90;;;;;;5040687;28;20176;-78
2024/01/11 06:53:23;;;;;;;20.17;12.20;;;-3.90;99.90;;;;;;5035339;28;20186;-79
2024/01/11 06:55:52;;;;;;;19.03;12.53;;;-4.10;99.90;;;;;;5034518;28;20191;-78
2024/01/11 06:58:20;;;;;;;24.03;13.57;;;-3.90;99.90;;;;;;5034222;28;20180;-80
2024/01/11 07:00:46;;;;;;;25.00;12.93;;;-5.20;99.90;;;;;;5035211;28;20219;-77
2024/01/11 07:03:12;;;;;;;24.17;14.07;;;-3.80;99.90;;;;;;5033957;28;20176;-78
2024/01/11 07:05:37;;;;;;;26.00;14.00;;;-3.80;99.90;;;;;;5034651;28;20633;-78
2024/01/11 07:08:04;;;;;;;22.00;13.80;;;-3.70;99.90;;;;;;5047143;28;20180;-77
2024/01/11 07:10:30;;;;;;;23.97;13.57;;;-3.70;99.90;;;;;;5041397;28;20278;-78
2024/01/11 07:12:56;;;;;;;26.13;12.87;;;-3.70;99.90;;;;;;5043121;28;20176;-76
2024/01/11 07:15:23;;;;;;;22.17;12.93;;;-3.90;99.90;;;;;;5046886;28;20181;-77
2024/01/11 07:17:49;;;;;;;23.07;12.60;;;-3.80;99.90;;;;;;5039104;28;20567;-78
2024/01/11 07:20:16;;;;;;;18.73;12.30;;;-3.70;99.90;;;;;;5033457;28;20216;-78
2024/01/11 07:22:42;;;;;;;21.37;12.67;;;-3.70;99.90;;;;;;5035069;28;20177;-76
2024/01/11 07:25:08;;;;;;;22.23;13.27;;;-3.70;99.90;;;;;;5050011;28;20296;-80
2024/01/11 07:27:35;;;;;;;22.27;12.57;;;-3.70;99.90;;;;;;5037620;28;20223;-80
2024/01/11 07:30:02;;;;;;;22.47;13.77;;;-3.60;99.90;;;;;;5035832;28;20640;-79
2024/01/11 07:32:28;;;;;;;21.87;13.40;;;-3.60;99.90;;;;;;5035904;28;20190;-78
2024/01/11 07:34:54;;;;;;;24.03;13.37;;;-3.60;99.90;;;;;;5035814;28;20700;-77
2024/01/11 07:37:20;;;;;;;26.97;15.13;;;-3.60;99.90;;;;;;5034318;28;20183;-76
2024/01/11 07:39:45;;;;;;;25.43;14.50;;;-3.40;99.90;;;;;;5035952;28;20210;-77
2024/01/11 07:42:11;;;;;;;27.63;14.23;;;-3.60;99.90;;;;;;5034586;28;20255;-77
2024/01/11 07:44:37;;;;;;;32.90;15.07;;;-3.50;99.90;;;;;;5034589;28;20591;-76
2024/01/11 07:47:03;;;;;;;28.63;15.57;;;-3.50;99.90;;;;;;5040293;28;20252;-78
2024/01/11 07:49:29;;;;;;;27.33;14.60;;;-3.50;99.90;;;;;;5036156;28;20254;-78
2024/01/11 07:51:54;;;;;;;30.33;14.30;;;-3.40;99.90;;;;;;5034550;28;20515;-78
2024/01/11 07:54:20;;;;;;;24.90;14.30;;;-3.40;99.90;;;;;;5034088;28;20168;-78
2024/01/11 07:56:46;;;;;;;26.07;14.47;;;-3.40;99.90;;;;;;5034053;28;20203;-78
2024/01/11 07:59:14;;;;;;;23.53;13.93;;;-3.40;99.90;;;;;;5034218;28;20547;-79
2024/01/11 08:01:40;;;;;;;26.00;15.03;;;-3.50;99.90;;;;;;5034055;28;20196;-79
2024/01/11 08:04:06;;;;;;;29.30;16.03;;;-3.40;99.90;;;;;;5033692;28;20266;-76
2024/01/11 08:06:32;;;;;;;28.47;15.50;;;-3.70;99.90;;;;;;5033882;28;20184;-76
2024/01/11 08:08:58;;;;;;;30.73;16.33;;;-3.30;99.90;;;;;;5037730;28;20169;-76
2024/01/11 08:11:23;;;;;;;27.60;16.23;;;-3.20;99.90;;;;;;5054692;28;20284;-78
2024/01/11 08:13:49;;;;;;;30.43;15.77;;;-3.20;99.90;;;;;;5041808;28;20172;-78
2024/01/11 08:16:16;;;;;;;30.00;16.83;;;-3.30;99.90;;;;;;5033699;28;20185;-79
2024/01/11 08:18:43;;;;;;;30.27;15.80;;;-3.20;99.90;;;;;;5033391;28;20228;-77
2024/01/11 08:21:11;;;;;;;30.03;15.23;;;-3.20;99.90;;;;;;5033975;28;20221;-78
2024/01/11 08:23:44;;;;;;;27.63;15.80;;;-3.10;99.90;;;;;;5033930;28;20327;-77
2024/01/11 08:26:14;;;;;;;30.90;15.47;;;-3.20;99.90;;;;;;5033421;28;20261;-75
2024/01/11 08:28:40;;;;;;;27.77;15.97;;;-3.10;99.90;;;;;;5033577;28;20259;-78
2024/01/11 08:31:06;;;;;;;25.93;15.57;;;-3.00;99.90;;;;;;5034344;28;20269;-79
2024/01/11 08:33:32;;;;;;;27.97;14.50;;;-3.00;99.90;;;;;;5033209;28;20186;-77
2024/01/11 08:35:57;;;;;;;25.83;15.83;;;-3.10;99.90;;;;;;5034046;28;20177;-76
2024/01/11 08:38:24;;;;;;;32.70;16.93;;;-3.10;99.90;;;;;;5035922;28;20176;-77
2024/01/11 08:40:50;;;;;;;26.70;16.03;;;-3.00;99.90;;;;;;5033238;28;20575;-77
2024/01/11 08:43:16;;;;;;;27.00;15.40;;;-2.90;99.90;;;;;;5033909;28;20180;-78
2024/01/11 08:45:43;;;;;;;28.13;16.17;;;-3.00;99.90;;;;;;5035931;28;20450;-79
2024/01/11 08:48:09;;;;;;;24.90;14.93;;;-3.10;99.90;;;;;;5035305;28;20187;-80
2024/01/11 08:50:35;;;;;;;27.90;16.23;;;-2.90;99.90;;;;;;5035709;28;20165;-80
2024/01/11 08:53:01;;;;;;;28.30;15.73;;;-2.70;99.90;;;;;;5045700;28;20188;-77
2024/01/11 08:55:27;;;;;;;35.80;17.10;;;-2.60;99.90;;;;;;5037065;28;20201;-79
2024/01/11 08:57:53;;;;;;;31.00;16.70;;;-2.50;99.90;;;;;;5036649;28;20212;-77
2024/01/11 09:00:19;;;;;;;27.83;16.77;;;-2.50;99.90;;;;;;5035900;28;20630;-77
2024/01/11 09:02:45;;;;;;;29.53;15.93;;;-2.50;99.90;;;;;;5039544;28;20169;-78
2024/01/11 09:05:11;;;;;;;41.37;18.20;;;-2.40;99.90;;;;;;5037432;28;20172;-77
2024/01/11 09:07:37;;;;;;;28.60;16.83;;;-2.40;99.90;;;;;;5052199;28;20644;-78
2024/01/11 09:10:03;;;;;;;28.37;16.13;;;-2.30;99.90;;;;;;5034668;28;20231;-77
2024/01/11 09:12:29;;;;;;;27.03;15.83;;;-2.20;99.90;;;;;;5035261;28;20209;-77
2024/01/11 09:14:55;;;;;;;27.67;16.87;;;-2.20;99.90;;;;;;5051925;28;20162;-78
2024/01/11 09:17:21;;;;;;;32.70;17.17;;;-2.30;99.90;;;;;;5037527;28;20360;-78
2024/01/11 09:19:47;;;;;;;28.93;17.03;;;-2.30;99.90;;;;;;5032576;28;20264;-78
2024/01/11 09:22:13;;;;;;;26.70;16.43;;;-2.40;99.90;;;;;;5032462;28;20192;-79
2024/01/11 09:24:38;;;;;;;28.47;16.50;;;-2.40;99.90;;;;;;5032758;28;20180;-79
2024/01/11 09:27:05;;;;;;;25.27;15.93;;;-2.50;99.90;;;;;;5031639;28;20221;-79
2024/01/11 09:29:33;;;;;;;24.50;15.47;;;-2.40;99.90;;;;;;5031575;28;20189;-78
2024/01/11 09:31:59;;;;;;;26.63;15.27;;;-2.30;99.90;;;;;;5033367;28;20644;-79
2024/01/11 09:34:26;;;;;;;25.87;15.63;;;-2.00;99.90;;;;;;5032391;28;20186;-77
2024/01/11 09:36:52;;;;;;;24.50;15.10;;;-1.90;99.90;;;;;;5015009;28;20192;-79
2024/01/11 09:39:18;;;;;;;27.97;16.50;;;-1.90;99.90;;;;;;5033172;28;20212;-77
2024/01/11 09:41:55;;;;;;;28.43;17.00;;;-1.90;99.90;;;;;;5034847;28;20578;-80
2024/01/11 09:44:21;;;;;;;24.57;17.37;;;-1.80;99.90;;;;;;5035532;28;20601;-78
2024/01/11 09:46:48;;;;;;;29.60;18.63;;;-1.80;99.90;;;;;;5023267;28;20641;-78
2024/01/11 09:49:19;;;;;;;26.10;15.87;;;-1.80;99.90;;;;;;5028891;28;20179;-78
2024/01/11 09:51:47;;;;;;;28.60;15.97;;;-1.90;99.90;;;;;;5034247;28;20189;-79
2024/01/11 09:54:15;;;;;;;23.73;15.47;;;-1.90;99.90;;;;;;5033050;28;20191;-79
2024/01/11 09:56:43;;;;;;;23.47;13.67;;;-1.80;99.90;;;;;;5035018;28;20218;-79
2024/01/11 09:59:09;;;;;;;25.90;14.23;;;-1.60;99.90;;;;;;5034867;28;20174;-77
2024/01/11 10:01:35;;;;;;;23.50;14.50;;;-1.50;99.90;;;;;;5035509;28;20208;-77
2024/01/11 10:04:03;;;;;;;23.80;14.10;;;-1.40;99.90;;;;;;5035505;28;20219;-81
2024/01/11 10:06:33;;;;;;;22.50;14.37;;;-1.30;99.90;;;;;;5035822;28;20527;-80
2024/01/11 10:08:59;;;;;;;25.87;14.17;;;-1.90;99.90;;;;;;5035883;28;20164;-80
2024/01/11 10:11:25;;;;;;;26.00;15.40;;;-1.20;99.90;;;;;;5036400;28;20392;-78
2024/01/11 10:13:57;;;;;;;25.17;14.80;;;-1.10;99.90;;;;;;5036873;28;20175;-77
2024/01/11 10:16:24;;;;;;;25.03;15.97;;;-1.10;99.90;;;;;;5037287;28;20170;-78
2024/01/11 10:18:53;;;;;;;23.60;14.57;;;-1.30;99.90;;;;;;5044171;28;20170;-75
2024/01/11 10:21:19;;;;;;;26.97;14.20;;;-1.00;99.90;;;;;;5044879;28;20207;-76
2024/01/11 10:23:45;;;;;;;25.77;13.70;;;-1.00;99.90;;;;;;5051484;28;20177;-76
2024/01/11 10:26:10;;;;;;;24.90;13.40;;;-1.10;99.90;;;;;;5037188;28;20190;-76
2024/01/11 10:28:37;;;;;;;22.47;14.07;;;-0.90;99.90;;;;;;5038045;28;20178;-78
2024/01/11 10:31:07;;;;;;;32.10;15.47;;;-1.00;99.90;;;;;;5050314;28;20179;-79
2024/01/11 10:33:34;;;;;;;22.60;14.47;;;-1.00;99.90;;;;;;5036023;28;20248;-79
2024/01/11 10:36:00;;;;;;;23.03;13.43;;;-1.00;99.90;;;;;;5036733;28;20265;-78
2024/01/11 10:38:26;;;;;;;22.03;14.60;;;-1.00;99.90;;;;;;5036016;28;20733;-78
2024/01/11 10:40:55;;;;;;;21.53;14.00;;;-0.90;99.90;;;;;;5038614;28;20230;-77
2024/01/11 10:43:22;;;;;;;23.27;12.97;;;-0.80;99.90;;;;;;5036471;28;20210;-79
2024/01/11 10:45:57;;;;;;;23.67;14.07;;;-0.40;99.90;;;;;;5036327;28;20204;-77
2024/01/11 10:48:25;;;;;;;20.77;13.17;;;-0.60;99.90;;;;;;5037116;28;20167;-79
2024/01/11 10:50:57;;;;;;;20.67;13.10;;;-0.50;99.90;;;;;;5033491;28;20658;-77
2024/01/11 10:53:38;;;;;;;27.67;13.40;;;-0.30;99.90;;;;;;5035292;28;20179;-77
2024/01/11 10:56:08;;;;;;;21.47;12.87;;;-0.40;99.90;;;;;;5035327;28;20602;-78
2024/01/11 10:58:37;;;;;;;21.30;12.77;;;-0.50;99.90;;;;;;5034612;28;20202;-77
2024/01/11 11:01:05;;;;;;;23.10;12.20;;;-0.40;99.90;;;;;;5038348;28;20217;-79
2024/01/11 11:03:34;;;;;;;21.40;12.73;;;-0.30;99.90;;;;;;5041298;28;20183;-76
2024/01/11 11:06:00;;;;;;;18.67;12.37;;;-0.20;99.90;;;;;;5053383;28;20616;-78
2024/01/11 11:08:27;;;;;;;19.13;12.67;;;-0.20;99.90;;;;;;5036708;28;20178;-79
2024/01/11 11:10:57;;;;;;;23.63;13.13;;;-0.10;99.90;;;;;;5038459;28;20301;-78
2024/01/11 11:13:23;;;;;;;19.27;11.97;;;0.30;99.90;;;;;;5036221;28;20764;-80
2024/01/11 11:15:50;;;;;;;22.73;12.77;;;0.10;99.90;;;;;;5034461;28;20179;-78
2024/01/11 11:18:18;;;;;;;19.27;12.17;;;0.20;99.90;;;;;;5035223;28;20229;-79
2024/01/11 11:20:44;;;;;;;19.57;11.57;;;0.20;99.90;;;;;;5035625;28;20267;-79
2024/01/11 11:23:12;;;;;;;15.50;11.43;;;0.20;99.90;;;;;;5035917;28;20175;-80
2024/01/11 11:25:40;;;;;;;14.27;10.83;;;0.30;99.90;;;;;;5041089;28;20209;-80
2024/01/11 11:28:06;;;;;;;17.83;10.87;;;0.40;99.90;;;;;;5036311;28;20223;-81
2024/01/11 11:30:44;;;;;;;17.60;10.93;;;0.50;99.90;;;;;;5034559;28;20183;-78
2024/01/11 11:33:11;;;;;;;18.67;11.63;;;0.50;99.90;;;;;;5034398;28;20172;-78
2024/01/11 11:35:37;;;;;;;15.80;10.53;;;0.50;99.90;;;;;;5035781;28;20184;-78
2024/01/11 11:38:05;;;;;;;18.57;9.83;;;0.50;99.90;;;;;;5047447;28;20187;-78
2024/01/11 11:40:39;;;;;;;14.70;9.57;;;0.60;99.90;;;;;;5034298;28;20234;-79
2024/01/11 11:43:08;;;;;;;13.93;9.77;;;0.60;99.90;;;;;;5034160;28;20163;-79
2024/01/11 11:45:34;;;;;;;16.47;10.13;;;0.80;99.90;;;;;;5034362;28;20178;-79
2024/01/11 11:48:00;;;;;;;13.10;8.50;;;0.80;99.90;;;;;;5033993;28;20222;-80
2024/01/11 11:50:26;;;;;;;15.20;9.37;;;;;;;;;;5033412;28;20578;-79
2024/01/11 11:52:59;;;;;;;16.90;8.80;;;0.80;99.90;;;;;;5032426;28;20183;-77
2024/01/11 11:55:25;;;;;;;15.40;9.27;;;1.20;99.90;;;;;;5033054;28;20180;-79
2024/01/11 11:57:55;;;;;;;14.10;9.17;;;0.90;99.90;;;;;;5034989;28;20182;-78
2024/01/11 12:00:21;;;;;;;12.47;9.07;;;1.00;99.90;;;;;;5035029;28;20230;-77
2024/01/11 12:02:53;;;;;;;13.83;9.47;;;1.00;99.90;;;;;;5033468;28;20626;-78
2024/01/11 12:05:19;;;;;;;13.93;9.57;;;1.30;99.90;;;;;;5033846;28;20196;-77
2024/01/11 12:07:45;;;;;;;14.23;9.80;;;1.00;99.90;;;;;;5041534;28;20187;-78
2024/01/11 12:10:11;;;;;;;14.30;9.50;;;1.00;99.90;;;;;;5037868;28;20224;-78
2024/01/11 12:12:38;;;;;;;16.67;9.40;;;1.10;99.90;;;;;;5033907;28;20177;-78
2024/01/11 12:15:08;;;;;;;15.67;9.93;;;1.20;99.90;;;;;;5033670;28;20275;-78
2024/01/11 12:17:33;;;;;;;15.87;9.23;;;1.20;99.90;;;;;;5036669;28;20232;-78
2024/01/11 12:19:59;;;;;;;12.80;8.77;;;1.20;99.90;;;;;;5043478;28;20617;-77
2024/01/11 12:22:25;;;;;;;12.77;8.93;;;-0.60;99.90;;;;;;5036280;28;20660;-77
2024/01/11 12:24:51;;;;;;;14.77;9.87;;;1.40;99.90;;;;;;5033630;28;20172;-78